Edgewood, Florida
Current Conditions -  °F | °C
As of 12:53 PM on Thursday 23 Oct 2014 (Local Time) from KORL Reporting Station
Few Clouds Few Clouds  
Wind Chill: 80°   Ceiling: Unl
Heat Index: 81°   Visibility: 10mi
Dew Point: 58°   Wind: 9mph
Humidity: 47%   Direction: 90°E
Pressure: 30"   Gusts: NA
Location:  28.4877°N, 81.409°W
Report Text: KORL 231653Z 09008KT 10SM FEW049 27/14 A3000 RMK AO2 SLP163 T02670144
Loading
Personal Weather Stations






























Interactive Weather Map
Tropical Storm Tracking
New forecast layout! Learn more

10-Day Weather Forecast

Advertisements
Track Severe Weather on mobile